KCOF/COF METAR and TAF weather

Enter ICAO airport designator
Station Type Date Time Source
KCOF METAR 2019/11/18 09:11 UTC NOAA

KCOF 180911Z AUTO 30011KT 10SM FEW006 SCT011 OVC019 14/14 A2983 RMK AO2 CIG 011V019 CIG 012 RWY03 SLP106 $


Station Type Date Time Source
KCOF Decoded METAR 2019/11/18 09:11 UTC NOAA

Cocoa / Patrick Air Force Base, FL, United States (KCOF) 28-14N 080-36W 3M
Nov 18, 2019 - 04:11 AM EST / 2019.11.18 0911 UTC
Wind: from the WNW (300 degrees) at 13 MPH (11 KT):0
Visibility: 10 mile(s):0
Sky conditions: overcast
Temperature: 57 F (14 C)
Dew Point: 57 F (14 C)
Relative Humidity: 100%
Pressure (altimeter): 29.83 in. Hg (1010 hPa)
ob: KCOF 180911Z AUTO 30011KT 10SM FEW006 SCT011 OVC019 14/14 A2983 RMK AO2 CIG 011V019 CIG 012 RWY03 SLP106
cycle: 9

Station Type Date Time Source
KCOF TAF 2019/11/17 19:31 UTC NOAA

TAF KCOF 171900Z 1719/1901 33012G18KT 9999 OVC007 QNH2987INS
TEMPO 1722/1805 OVC015
BECMG 1805/1806 29010G15KT 9999 BKN020 BKN270 QNH2986INS
BECMG 1814/1815 30010KT 9999 SCT030 QNH2993INS TX16/1819Z TN10/1810Z LAST NO
AMDS AFT 1722 NEXT 1811

Example: see airport list